sensor_id;sensor_type;location;lat;lon;timestamp;pressure;altitude;pressure_sealevel;temperature;humidity
71145;BME280;58812;47.698;17.726;2023-07-31T00:00:04;100041.25;;;18.44;100.00
71145;BME280;58812;47.698;17.726;2023-07-31T00:02:30;100032.47;;;18.49;100.00
71145;BME280;58812;47.698;17.726;2023-07-31T00:04:55;100043.75;;;18.46;100.00
71145;BME280;58812;47.698;17.726;2023-07-31T00:07:21;100034.09;;;18.30;100.00
71145;BME280;58812;47.698;17.726;2023-07-31T00:09:46;100033.44;;;18.69;100.00
71145;BME280;58812;47.698;17.726;2023-07-31T00:12:11;100028.72;;;18.50;100.00
71145;BME280;58812;47.698;17.726;2023-07-31T00:14:37;100038.03;;;18.88;100.00
71145;BME280;58812;47.698;17.726;2023-07-31T00:17:02;100042.25;;;18.98;100.00
71145;BME280;58812;47.698;17.726;2023-07-31T00:19:28;100036.78;;;18.84;100.00
71145;BME280;58812;47.698;17.726;2023-07-31T00:21:53;100032.44;;;19.23;100.00
71145;BME280;58812;47.698;17.726;2023-07-31T00:24:19;100035.59;;;19.33;100.00
71145;BME280;58812;47.698;17.726;2023-07-31T00:26:44;100039.75;;;19.49;100.00
71145;BME280;58812;47.698;17.726;2023-07-31T00:29:09;100051.00;;;19.79;100.00
71145;BME280;58812;47.698;17.726;2023-07-31T00:31:35;100044.78;;;19.45;100.00
71145;BME280;58812;47.698;17.726;2023-07-31T00:34:00;100041.41;;;19.57;100.00
71145;BME280;58812;47.698;17.726;2023-07-31T00:36:26;100042.06;;;19.59;100.00
71145;BME280;58812;47.698;17.726;2023-07-31T00:38:51;100042.44;;;19.56;100.00
71145;BME280;58812;47.698;17.726;2023-07-31T00:41:17;100042.03;;;19.52;100.00
71145;BME280;58812;47.698;17.726;2023-07-31T00:43:43;100044.75;;;19.19;100.00
71145;BME280;58812;47.698;17.726;2023-07-31T00:46:08;100047.28;;;19.40;100.00
71145;BME280;58812;47.698;17.726;2023-07-31T00:48:35;100046.66;;;19.45;100.00
71145;BME280;58812;47.698;17.726;2023-07-31T00:51:01;100055.22;;;19.75;100.00
71145;BME280;58812;47.698;17.726;2023-07-31T00:53:27;100050.81;;;19.67;100.00
71145;BME280;58812;47.698;17.726;2023-07-31T00:55:53;100062.28;;;19.89;100.00
71145;BME280;58812;47.698;17.726;2023-07-31T00:58:18;100067.31;;;19.53;100.00
71145;BME280;58812;47.698;17.726;2023-07-31T01:00:44;100064.75;;;19.97;100.00
71145;BME280;58812;47.698;17.726;2023-07-31T01:03:10;100062.66;;;20.06;99.38
71145;BME280;58812;47.698;17.726;2023-07-31T01:10:56;100059.75;;;19.94;100.00
71145;BME280;58812;47.698;17.726;2023-07-31T01:13:25;100058.13;;;19.67;99.29
71145;BME280;58812;47.698;17.726;2023-07-31T01:15:50;100066.88;;;19.95;100.00
71145;BME280;58812;47.698;17.726;2023-07-31T01:18:16;100068.34;;;19.85;98.48
71145;BME280;58812;47.698;17.726;2023-07-31T01:20:42;100069.00;;;19.87;99.36
71145;BME280;58812;47.698;17.726;2023-07-31T01:28:14;100075.06;;;19.69;100.00
71145;BME280;58812;47.698;17.726;2023-07-31T01:30:44;100073.81;;;19.65;99.67
71145;BME280;58812;47.698;17.726;2023-07-31T01:33:14;100088.63;;;19.62;100.00
71145;BME280;58812;47.698;17.726;2023-07-31T01:35:44;100089.28;;;19.64;99.51
71145;BME280;58812;47.698;17.726;2023-07-31T01:38:09;100078.19;;;19.53;99.68
71145;BME280;58812;47.698;17.726;2023-07-31T01:40:35;100078.16;;;19.33;100.00
71145;BME280;58812;47.698;17.726;2023-07-31T01:43:01;100068.13;;;19.07;100.00
71145;BME280;58812;47.698;17.726;2023-07-31T01:45:26;100078.03;;;18.25;100.00
71145;BME280;58812;47.698;17.726;2023-07-31T01:47:52;100075.59;;;18.37;100.00
71145;BME280;58812;47.698;17.726;2023-07-31T01:50:17;100069.84;;;18.12;100.00
71145;BME280;58812;47.698;17.726;2023-07-31T01:52:42;100065.47;;;18.11;100.00
71145;BME280;58812;47.698;17.726;2023-07-31T01:55:08;100062.69;;;17.91;100.00
71145;BME280;58812;47.698;17.726;2023-07-31T01:57:34;100061.53;;;17.51;100.00
71145;BME280;58812;47.698;17.726;2023-07-31T01:59:59;100059.56;;;17.38;100.00
71145;BME280;58812;47.698;17.726;2023-07-31T02:02:24;100068.88;;;17.35;100.00
71145;BME280;58812;47.698;17.726;2023-07-31T02:04:50;100070.06;;;17.26;100.00
71145;BME280;58812;47.698;17.726;2023-07-31T02:07:15;100069.81;;;17.21;100.00
71145;BME280;58812;47.698;17.726;2023-07-31T02:09:41;100074.56;;;17.19;100.00
71145;BME280;58812;47.698;17.726;2023-07-31T02:12:06;100079.19;;;17.47;100.00
71145;BME280;58812;47.698;17.726;2023-07-31T02:14:34;100088.69;;;17.64;100.00
71145;BME280;58812;47.698;17.726;2023-07-31T02:16:59;100087.03;;;17.63;100.00
71145;BME280;58812;47.698;17.726;2023-07-31T02:19:25;100084.63;;;17.75;100.00
71145;BME280;58812;47.698;17.726;2023-07-31T02:21:50;100086.34;;;17.82;100.00
71145;BME280;58812;47.698;17.726;2023-07-31T02:24:15;100091.75;;;17.82;100.00
71145;BME280;58812;47.698;17.726;2023-07-31T02:26:41;100098.00;;;18.59;100.00
71145;BME280;58812;47.698;17.726;2023-07-31T02:29:07;100101.03;;;18.77;100.00
71145;BME280;58812;47.698;17.726;2023-07-31T02:31:33;100090.44;;;19.09;100.00
71145;BME280;58812;47.698;17.726;2023-07-31T02:33:58;100103.62;;;19.38;99.70
71145;BME280;58812;47.698;17.726;2023-07-31T02:36:23;100106.56;;;19.30;100.00
71145;BME280;58812;47.698;17.726;2023-07-31T02:38:49;100092.13;;;18.49;99.98
71145;BME280;58812;47.698;17.726;2023-07-31T02:41:14;100108.00;;;19.13;100.00
71145;BME280;58812;47.698;17.726;2023-07-31T02:43:40;100107.63;;;19.42;100.00
71145;BME280;58812;47.698;17.726;2023-07-31T02:46:05;100096.12;;;19.47;98.30
71145;BME280;58812;47.698;17.726;2023-07-31T02:48:31;100096.03;;;18.74;95.99
71145;BME280;58812;47.698;17.726;2023-07-31T02:50:57;100090.22;;;18.90;99.82
71145;BME280;58812;47.698;17.726;2023-07-31T02:53:22;100088.34;;;18.02;98.43
71145;BME280;58812;47.698;17.726;2023-07-31T02:55:48;100086.97;;;18.19;100.00
71145;BME280;58812;47.698;17.726;2023-07-31T02:58:13;100081.97;;;17.81;100.00
71145;BME280;58812;47.698;17.726;2023-07-31T03:00:43;100084.84;;;18.56;100.00
71145;BME280;58812;47.698;17.726;2023-07-31T03:03:08;100083.12;;;18.89;100.00
71145;BME280;58812;47.698;17.726;2023-07-31T03:05:34;100092.09;;;18.42;100.00
71145;BME280;58812;47.698;17.726;2023-07-31T03:07:59;100097.72;;;17.99;99.55
71145;BME280;58812;47.698;17.726;2023-07-31T03:10:25;100106.47;;;18.01;100.00
71145;BME280;58812;47.698;17.726;2023-07-31T03:12:50;100108.06;;;17.40;100.00
71145;BME280;58812;47.698;17.726;2023-07-31T03:15:15;100101.34;;;17.35;100.00
71145;BME280;58812;47.698;17.726;2023-07-31T03:17:41;100116.38;;;17.87;100.00
71145;BME280;58812;47.698;17.726;2023-07-31T03:20:07;100113.44;;;18.58;100.00
71145;BME280;58812;47.698;17.726;2023-07-31T03:22:33;100109.25;;;18.56;100.00
71145;BME280;58812;47.698;17.726;2023-07-31T03:25:00;100122.69;;;18.71;100.00
71145;BME280;58812;47.698;17.726;2023-07-31T03:27:26;100129.75;;;18.65;100.00
71145;BME280;58812;47.698;17.726;2023-07-31T03:29:51;100118.34;;;18.35;100.00
71145;BME280;58812;47.698;17.726;2023-07-31T03:32:17;100136.00;;;17.68;100.00
71145;BME280;58812;47.698;17.726;2023-07-31T03:34:42;100135.75;;;17.63;100.00
71145;BME280;58812;47.698;17.726;2023-07-31T03:37:08;100137.50;;;17.49;100.00
71145;BME280;58812;47.698;17.726;2023-07-31T03:39:34;100146.34;;;17.79;100.00
71145;BME280;58812;47.698;17.726;2023-07-31T03:42:00;100150.47;;;18.79;100.00
71145;BME280;58812;47.698;17.726;2023-07-31T03:44:25;100148.94;;;18.63;100.00
71145;BME280;58812;47.698;17.726;2023-07-31T03:46:51;100153.56;;;18.70;100.00
71145;BME280;58812;47.698;17.726;2023-07-31T03:49:16;100146.59;;;19.08;98.92
71145;BME280;58812;47.698;17.726;2023-07-31T03:51:42;100151.66;;;19.44;96.26
71145;BME280;58812;47.698;17.726;2023-07-31T03:54:08;100158.75;;;19.32;96.59
71145;BME280;58812;47.698;17.726;2023-07-31T03:56:33;100161.28;;;19.34;96.76
71145;BME280;58812;47.698;17.726;2023-07-31T03:58:59;100160.91;;;19.57;96.34
71145;BME280;58812;47.698;17.726;2023-07-31T04:01:24;100169.22;;;19.42;95.42
71145;BME280;58812;47.698;17.726;2023-07-31T04:03:49;100167.69;;;19.06;97.17
71145;BME280;58812;47.698;17.726;2023-07-31T04:06:15;100168.94;;;19.04;97.61
71145;BME280;58812;47.698;17.726;2023-07-31T04:08:44;100172.06;;;19.07;94.98
71145;BME280;58812;47.698;17.726;2023-07-31T04:11:10;100174.84;;;18.73;98.62
71145;BME280;58812;47.698;17.726;2023-07-31T04:13:36;100180.78;;;18.96;95.67
71145;BME280;58812;47.698;17.726;2023-07-31T04:16:02;100179.53;;;18.51;96.71
71145;BME280;58812;47.698;17.726;2023-07-31T04:18:27;100182.19;;;18.85;96.18
71145;BME280;58812;47.698;17.726;2023-07-31T04:20:53;100178.41;;;19.34;96.26
71145;BME280;58812;47.698;17.726;2023-07-31T04:23:18;100168.78;;;19.38;94.50
71145;BME280;58812;47.698;17.726;2023-07-31T04:25:44;100168.78;;;19.32;93.63
71145;BME280;58812;47.698;17.726;2023-07-31T04:28:09;100176.25;;;19.10;92.55
71145;BME280;58812;47.698;17.726;2023-07-31T04:30:35;100175.22;;;18.28;91.57
71145;BME280;58812;47.698;17.726;2023-07-31T04:33:01;100185.00;;;18.29;95.61
71145;BME280;58812;47.698;17.726;2023-07-31T04:35:27;100184.94;;;18.51;95.96
71145;BME280;58812;47.698;17.726;2023-07-31T04:37:52;100185.63;;;18.66;96.85
71145;BME280;58812;47.698;17.726;2023-07-31T04:40:18;100193.28;;;18.56;89.09
71145;BME280;58812;47.698;17.726;2023-07-31T04:42:43;100194.88;;;18.72;94.70
71145;BME280;58812;47.698;17.726;2023-07-31T04:45:09;100195.88;;;19.12;93.35
71145;BME280;58812;47.698;17.726;2023-07-31T04:47:34;100199.53;;;18.84;93.29
71145;BME280;58812;47.698;17.726;2023-07-31T04:50:00;100197.03;;;18.89;90.66
71145;BME280;58812;47.698;17.726;2023-07-31T04:52:25;100190.72;;;18.76;91.24
71145;BME280;58812;47.698;17.726;2023-07-31T04:54:51;100194.00;;;19.12;91.30
71145;BME280;58812;47.698;17.726;2023-07-31T04:57:16;100199.53;;;18.91;91.74
71145;BME280;58812;47.698;17.726;2023-07-31T04:59:41;100197.91;;;19.03;89.65
71145;BME280;58812;47.698;17.726;2023-07-31T05:02:08;100192.94;;;19.07;89.10
71145;BME280;58812;47.698;17.726;2023-07-31T05:04:33;100191.94;;;18.73;88.40
71145;BME280;58812;47.698;17.726;2023-07-31T05:06:59;100192.87;;;18.52;89.63
71145;BME280;58812;47.698;17.726;2023-07-31T05:09:24;100193.31;;;18.21;88.30
71145;BME280;58812;47.698;17.726;2023-07-31T05:11:50;100186.59;;;18.17;89.53
71145;BME280;58812;47.698;17.726;2023-07-31T05:14:15;100190.00;;;17.98;89.32
71145;BME280;58812;47.698;17.726;2023-07-31T05:16:41;100190.41;;;18.23;90.42
71145;BME280;58812;47.698;17.726;2023-07-31T05:19:07;100187.91;;;18.21;90.70
71145;BME280;58812;47.698;17.726;2023-07-31T05:21:32;100194.47;;;18.40;91.70
71145;BME280;58812;47.698;17.726;2023-07-31T05:23:57;100192.66;;;18.19;89.74
71145;BME280;58812;47.698;17.726;2023-07-31T05:26:23;100197.34;;;18.04;89.44
71145;BME280;58812;47.698;17.726;2023-07-31T05:28:48;100189.81;;;17.99;90.49
71145;BME280;58812;47.698;17.726;2023-07-31T05:31:14;100187.16;;;17.84;89.51
71145;BME280;58812;47.698;17.726;2023-07-31T05:33:39;100196.84;;;17.94;90.02
71145;BME280;58812;47.698;17.726;2023-07-31T05:36:05;100202.53;;;18.27;91.31
71145;BME280;58812;47.698;17.726;2023-07-31T05:38:30;100199.53;;;18.15;87.35
71145;BME280;58812;47.698;17.726;2023-07-31T05:40:56;100205.00;;;18.22;87.69
71145;BME280;58812;47.698;17.726;2023-07-31T05:43:21;100208.00;;;18.33;88.80
71145;BME280;58812;47.698;17.726;2023-07-31T05:45:47;100204.34;;;18.54;87.75
71145;BME280;58812;47.698;17.726;2023-07-31T05:48:12;100209.16;;;18.93;87.73
71145;BME280;58812;47.698;17.726;2023-07-31T05:50:38;100210.84;;;18.94;86.25
71145;BME280;58812;47.698;17.726;2023-07-31T05:53:06;100209.44;;;19.12;84.20
71145;BME280;58812;47.698;17.726;2023-07-31T05:55:33;100221.81;;;19.28;82.41
71145;BME280;58812;47.698;17.726;2023-07-31T05:57:58;100218.16;;;19.62;80.32
71145;BME280;58812;47.698;17.726;2023-07-31T06:00:24;100225.06;;;19.97;79.88
71145;BME280;58812;47.698;17.726;2023-07-31T06:02:49;100222.78;;;19.81;80.65
71145;BME280;58812;47.698;17.726;2023-07-31T06:05:15;100220.22;;;20.39;75.72
71145;BME280;58812;47.698;17.726;2023-07-31T06:07:40;100222.34;;;20.50;76.15
71145;BME280;58812;47.698;17.726;2023-07-31T06:10:06;100218.06;;;20.81;73.86
71145;BME280;58812;47.698;17.726;2023-07-31T06:12:32;100217.69;;;20.71;75.10
71145;BME280;58812;47.698;17.726;2023-07-31T06:14:58;100213.25;;;21.41;73.75
71145;BME280;58812;47.698;17.726;2023-07-31T06:17:23;100217.81;;;21.47;72.52
71145;BME280;58812;47.698;17.726;2023-07-31T06:19:49;100217.94;;;21.14;70.07
71145;BME280;58812;47.698;17.726;2023-07-31T06:22:15;100212.38;;;21.47;68.30
71145;BME280;58812;47.698;17.726;2023-07-31T06:24:40;100216.72;;;21.80;67.46
71145;BME280;58812;47.698;17.726;2023-07-31T06:27:06;100216.53;;;22.06;66.93
71145;BME280;58812;47.698;17.726;2023-07-31T06:29:32;100212.81;;;21.38;68.21
71145;BME280;58812;47.698;17.726;2023-07-31T06:31:57;100215.97;;;22.23;65.64
71145;BME280;58812;47.698;17.726;2023-07-31T06:34:23;100219.59;;;22.17;64.90
71145;BME280;58812;47.698;17.726;2023-07-31T06:36:48;100213.34;;;22.34;65.07
71145;BME280;58812;47.698;17.726;2023-07-31T06:39:13;100212.81;;;22.26;65.31
71145;BME280;58812;47.698;17.726;2023-07-31T06:41:39;100218.19;;;22.07;65.99
71145;BME280;58812;47.698;17.726;2023-07-31T06:44:04;100215.72;;;22.06;65.45
71145;BME280;58812;47.698;17.726;2023-07-31T06:46:30;100213.47;;;22.21;66.39
71145;BME280;58812;47.698;17.726;2023-07-31T06:48:55;100217.34;;;21.82;65.38
71145;BME280;58812;47.698;17.726;2023-07-31T06:51:21;100216.72;;;21.80;66.75
71145;BME280;58812;47.698;17.726;2023-07-31T06:53:46;100209.38;;;22.05;64.01
71145;BME280;58812;47.698;17.726;2023-07-31T06:56:12;100202.22;;;21.86;63.51
71145;BME280;58812;47.698;17.726;2023-07-31T06:58:37;100201.41;;;22.10;64.02
71145;BME280;58812;47.698;17.726;2023-07-31T07:01:02;100212.34;;;22.04;64.32
71145;BME280;58812;47.698;17.726;2023-07-31T07:03:28;100208.22;;;22.45;62.16
71145;BME280;58812;47.698;17.726;2023-07-31T07:05:54;100214.69;;;23.35;60.10
71145;BME280;58812;47.698;17.726;2023-07-31T07:08:19;100209.66;;;23.21;61.20
71145;BME280;58812;47.698;17.726;2023-07-31T07:10:45;100211.75;;;23.07;61.04
71145;BME280;58812;47.698;17.726;2023-07-31T07:13:10;100212.94;;;23.41;59.66
71145;BME280;58812;47.698;17.726;2023-07-31T07:15:37;100210.28;;;24.06;57.97
71145;BME280;58812;47.698;17.726;2023-07-31T07:18:03;100209.97;;;23.12;57.03
71145;BME280;58812;47.698;17.726;2023-07-31T07:20:28;100216.66;;;23.16;57.78
71145;BME280;58812;47.698;17.726;2023-07-31T07:22:54;100223.59;;;23.01;57.96
71145;BME280;58812;47.698;17.726;2023-07-31T07:25:19;100213.84;;;22.86;57.87
71145;BME280;58812;47.698;17.726;2023-07-31T07:27:45;100215.09;;;23.39;58.40
71145;BME280;58812;47.698;17.726;2023-07-31T07:30:10;100206.81;;;23.57;57.11
71145;BME280;58812;47.698;17.726;2023-07-31T07:32:35;100212.12;;;23.40;57.41
71145;BME280;58812;47.698;17.726;2023-07-31T07:35:01;100207.38;;;23.66;54.31
71145;BME280;58812;47.698;17.726;2023-07-31T07:37:26;100216.31;;;23.73;54.65
71145;BME280;58812;47.698;17.726;2023-07-31T07:39:52;100218.69;;;23.51;53.64
71145;BME280;58812;47.698;17.726;2023-07-31T07:42:17;100216.78;;;23.52;53.35
71145;BME280;58812;47.698;17.726;2023-07-31T07:44:43;100215.84;;;23.88;51.62
71145;BME280;58812;47.698;17.726;2023-07-31T07:47:08;100212.66;;;24.03;51.78
71145;BME280;58812;47.698;17.726;2023-07-31T07:49:34;100214.22;;;24.10;50.74
71145;BME280;58812;47.698;17.726;2023-07-31T07:52:00;100208.88;;;24.15;50.63
71145;BME280;58812;47.698;17.726;2023-07-31T07:54:26;100202.56;;;23.61;50.07
71145;BME280;58812;47.698;17.726;2023-07-31T07:56:51;100204.22;;;23.92;50.07
71145;BME280;58812;47.698;17.726;2023-07-31T07:59:17;100206.37;;;23.30;52.14
71145;BME280;58812;47.698;17.726;2023-07-31T08:01:42;100206.37;;;24.14;50.83
71145;BME280;58812;47.698;17.726;2023-07-31T08:04:08;100202.59;;;24.62;50.52
71145;BME280;58812;47.698;17.726;2023-07-31T08:06:33;100202.87;;;23.95;49.81
71145;BME280;58812;47.698;17.726;2023-07-31T08:08:59;100210.28;;;24.06;50.04
71145;BME280;58812;47.698;17.726;2023-07-31T08:11:30;100208.38;;;24.18;50.54
71145;BME280;58812;47.698;17.726;2023-07-31T08:13:55;100201.12;;;24.12;48.67
71145;BME280;58812;47.698;17.726;2023-07-31T08:16:21;100210.53;;;24.16;48.47
71145;BME280;58812;47.698;17.726;2023-07-31T08:18:46;100221.38;;;24.35;48.77
71145;BME280;58812;47.698;17.726;2023-07-31T08:21:11;100213.75;;;24.37;48.54
71145;BME280;58812;47.698;17.726;2023-07-31T08:23:37;100216.81;;;24.87;48.85
71145;BME280;58812;47.698;17.726;2023-07-31T08:26:02;100212.09;;;24.59;48.27
71145;BME280;58812;47.698;17.726;2023-07-31T08:28:28;100218.50;;;24.76;47.84
71145;BME280;58812;47.698;17.726;2023-07-31T08:30:53;100223.66;;;25.13;45.89
71145;BME280;58812;47.698;17.726;2023-07-31T08:33:18;100211.75;;;24.67;47.76
71145;BME280;58812;47.698;17.726;2023-07-31T08:35:44;100212.03;;;25.35;46.74
71145;BME280;58812;47.698;17.726;2023-07-31T08:38:09;100222.22;;;25.51;46.97
71145;BME280;58812;47.698;17.726;2023-07-31T08:40:36;100213.03;;;24.53;46.38
71145;BME280;58812;47.698;17.726;2023-07-31T08:43:03;100208.56;;;24.99;46.47
71145;BME280;58812;47.698;17.726;2023-07-31T08:45:30;100210.66;;;25.94;45.27
71145;BME280;58812;47.698;17.726;2023-07-31T08:47:56;100212.06;;;26.47;45.00
71145;BME280;58812;47.698;17.726;2023-07-31T08:50:22;100217.91;;;26.73;43.96
71145;BME280;58812;47.698;17.726;2023-07-31T08:52:50;100204.88;;;25.62;44.32
71145;BME280;58812;47.698;17.726;2023-07-31T08:55:16;100203.84;;;26.14;44.23
71145;BME280;58812;47.698;17.726;2023-07-31T08:57:42;100198.34;;;25.97;42.75
71145;BME280;58812;47.698;17.726;2023-07-31T09:00:09;100197.31;;;25.69;43.81
71145;BME280;58812;47.698;17.726;2023-07-31T09:02:48;100197.03;;;25.09;44.48
71145;BME280;58812;47.698;17.726;2023-07-31T09:05:15;100200.25;;;26.13;43.25
71145;BME280;58812;47.698;17.726;2023-07-31T09:07:44;100194.13;;;25.15;41.70
71145;BME280;58812;47.698;17.726;2023-07-31T09:13:33;100190.84;;;24.90;43.55
71145;BME280;58812;47.698;17.726;2023-07-31T09:15:59;100200.09;;;25.41;43.02
71145;BME280;58812;47.698;17.726;2023-07-31T09:18:24;100185.56;;;25.86;41.25
71145;BME280;58812;47.698;17.726;2023-07-31T09:21:06;100188.66;;;26.83;41.79
71145;BME280;58812;47.698;17.726;2023-07-31T09:23:46;100179.66;;;25.48;41.73
71145;BME280;58812;47.698;17.726;2023-07-31T09:26:36;100176.47;;;26.74;40.55
71145;BME280;58812;47.698;17.726;2023-07-31T09:29:06;100177.41;;;27.29;41.03
71145;BME280;58812;47.698;17.726;2023-07-31T09:31:43;100178.25;;;26.85;40.56
71145;BME280;58812;47.698;17.726;2023-07-31T09:34:09;100179.09;;;27.08;39.51
71145;BME280;58812;47.698;17.726;2023-07-31T09:36:41;100179.91;;;26.86;39.89
71145;BME280;58812;47.698;17.726;2023-07-31T09:39:09;100182.22;;;26.34;40.41
71145;BME280;58812;47.698;17.726;2023-07-31T09:41:43;100176.81;;;26.61;39.72
71145;BME280;58812;47.698;17.726;2023-07-31T09:44:09;100177.22;;;26.70;39.56
71145;BME280;58812;47.698;17.726;2023-07-31T09:46:35;100172.34;;;26.38;40.57
71145;BME280;58812;47.698;17.726;2023-07-31T09:49:09;100169.88;;;26.36;39.75
71145;BME280;58812;47.698;17.726;2023-07-31T09:51:39;100169.81;;;26.70;40.17
71145;BME280;58812;47.698;17.726;2023-07-31T09:54:15;100170.31;;;26.45;40.87
71145;BME280;58812;47.698;17.726;2023-07-31T09:56:46;100169.91;;;26.75;39.29
71145;BME280;58812;47.698;17.726;2023-07-31T09:59:16;100167.16;;;26.75;39.64
71145;BME280;58812;47.698;17.726;2023-07-31T10:01:43;100174.44;;;27.35;38.82
71145;BME280;58812;47.698;17.726;2023-07-31T10:04:10;100170.00;;;26.08;39.55
71145;BME280;58812;47.698;17.726;2023-07-31T10:06:37;100171.63;;;26.81;38.30
71145;BME280;58812;47.698;17.726;2023-07-31T10:09:05;100162.53;;;27.57;39.16
71145;BME280;58812;47.698;17.726;2023-07-31T10:11:36;100161.59;;;26.92;40.35
71145;BME280;58812;47.698;17.726;2023-07-31T10:14:04;100164.12;;;28.12;38.26
71145;BME280;58812;47.698;17.726;2023-07-31T10:16:31;100154.00;;;27.53;37.73
71145;BME280;58812;47.698;17.726;2023-07-31T10:18:57;100160.22;;;26.95;38.09
71145;BME280;58812;47.698;17.726;2023-07-31T10:21:23;100151.59;;;26.86;38.11
71145;BME280;58812;47.698;17.726;2023-07-31T10:23:49;100151.84;;;26.84;37.75
71145;BME280;58812;47.698;17.726;2023-07-31T10:26:19;100152.31;;;26.76;36.16
71145;BME280;58812;47.698;17.726;2023-07-31T10:28:46;100142.75;;;26.40;36.02
71145;BME280;58812;47.698;17.726;2023-07-31T10:31:12;100138.84;;;26.75;35.24
71145;BME280;58812;47.698;17.726;2023-07-31T10:33:39;100146.53;;;27.76;35.05
71145;BME280;58812;47.698;17.726;2023-07-31T10:36:17;100139.50;;;27.63;35.53
71145;BME280;58812;47.698;17.726;2023-07-31T10:38:43;100136.97;;;28.26;36.64
71145;BME280;58812;47.698;17.726;2023-07-31T10:41:09;100134.31;;;27.34;37.38
71145;BME280;58812;47.698;17.726;2023-07-31T10:43:36;100131.69;;;28.19;37.53
71145;BME280;58812;47.698;17.726;2023-07-31T10:46:07;100124.47;;;27.43;36.47
71145;BME280;58812;47.698;17.726;2023-07-31T10:48:33;100133.25;;;26.92;38.21
71145;BME280;58812;47.698;17.726;2023-07-31T10:50:59;100129.06;;;27.33;36.58
71145;BME280;58812;47.698;17.726;2023-07-31T10:53:29;100116.50;;;27.15;36.07
71145;BME280;58812;47.698;17.726;2023-07-31T10:56:02;100126.16;;;27.18;35.70
71145;BME280;58812;47.698;17.726;2023-07-31T10:58:29;100111.25;;;26.86;36.23
71145;BME280;58812;47.698;17.726;2023-07-31T11:00:58;100105.88;;;27.56;35.00
71145;BME280;58812;47.698;17.726;2023-07-31T11:03:40;100108.94;;;27.91;35.56
71145;BME280;58812;47.698;17.726;2023-07-31T11:06:06;100102.91;;;27.30;35.34
71145;BME280;58812;47.698;17.726;2023-07-31T11:08:33;100108.09;;;27.00;36.00
71145;BME280;58812;47.698;17.726;2023-07-31T11:13:48;100105.31;;;27.22;35.83
71145;BME280;58812;47.698;17.726;2023-07-31T11:16:24;100104.59;;;27.68;34.91
71145;BME280;58812;47.698;17.726;2023-07-31T11:18:50;100102.88;;;26.76;35.98
71145;BME280;58812;47.698;17.726;2023-07-31T11:21:23;100105.28;;;26.95;36.92
71145;BME280;58812;47.698;17.726;2023-07-31T11:23:53;100093.28;;;27.97;36.07
71145;BME280;58812;47.698;17.726;2023-07-31T11:26:19;100092.78;;;27.68;36.47
71145;BME280;58812;47.698;17.726;2023-07-31T11:28:49;100088.03;;;28.38;35.30
71145;BME280;58812;47.698;17.726;2023-07-31T11:31:15;100081.50;;;28.02;35.59
71145;BME280;58812;47.698;17.726;2023-07-31T11:33:40;100089.78;;;27.37;34.48
71145;BME280;58812;47.698;17.726;2023-07-31T11:36:05;100092.03;;;27.40;33.74
71145;BME280;58812;47.698;17.726;2023-07-31T11:38:32;100073.75;;;27.99;33.33
71145;BME280;58812;47.698;17.726;2023-07-31T11:41:02;100082.00;;;27.99;33.52
71145;BME280;58812;47.698;17.726;2023-07-31T11:43:30;100085.63;;;28.57;33.09
71145;BME280;58812;47.698;17.726;2023-07-31T11:45:57;100080.59;;;28.33;34.74
71145;BME280;58812;47.698;17.726;2023-07-31T11:48:30;100075.25;;;28.79;34.01
71145;BME280;58812;47.698;17.726;2023-07-31T11:50:59;100071.44;;;28.23;33.45
71145;BME280;58812;47.698;17.726;2023-07-31T11:53:35;100077.94;;;28.64;34.51
71145;BME280;58812;47.698;17.726;2023-07-31T11:56:02;100077.97;;;28.69;35.51
71145;BME280;58812;47.698;17.726;2023-07-31T11:58:30;100069.03;;;28.36;34.50
71145;BME280;58812;47.698;17.726;2023-07-31T12:00:57;100073.53;;;28.05;33.95
71145;BME280;58812;47.698;17.726;2023-07-31T12:03:24;100063.59;;;28.04;33.47
71145;BME280;58812;47.698;17.726;2023-07-31T12:05:50;100057.44;;;28.34;33.12
71145;BME280;58812;47.698;17.726;2023-07-31T12:08:16;100065.59;;;28.82;32.13
71145;BME280;58812;47.698;17.726;2023-07-31T12:10:41;100054.94;;;29.00;33.01
71145;BME280;58812;47.698;17.726;2023-07-31T12:13:12;100054.06;;;28.22;33.25
71145;BME280;58812;47.698;17.726;2023-07-31T12:15:42;100049.31;;;28.60;33.76
71145;BME280;58812;47.698;17.726;2023-07-31T12:18:10;100039.72;;;28.15;34.14
71145;BME280;58812;47.698;17.726;2023-07-31T12:20:40;100041.72;;;29.38;32.75
71145;BME280;58812;47.698;17.726;2023-07-31T12:23:07;100033.69;;;29.11;32.07
71145;BME280;58812;47.698;17.726;2023-07-31T12:25:33;100033.44;;;29.03;32.28
71145;BME280;58812;47.698;17.726;2023-07-31T12:28:05;100029.84;;;29.73;32.17
71145;BME280;58812;47.698;17.726;2023-07-31T12:30:34;100028.41;;;28.84;32.56
71145;BME280;58812;47.698;17.726;2023-07-31T12:33:07;100017.34;;;28.59;32.16
71145;BME280;58812;47.698;17.726;2023-07-31T12:35:38;100015.66;;;28.47;32.77
71145;BME280;58812;47.698;17.726;2023-07-31T12:38:05;100017.09;;;28.70;33.24
71145;BME280;58812;47.698;17.726;2023-07-31T12:40:31;100014.13;;;29.03;32.38
71145;BME280;58812;47.698;17.726;2023-07-31T12:42:56;100006.69;;;29.08;33.05
71145;BME280;58812;47.698;17.726;2023-07-31T12:45:22;100008.03;;;28.70;33.44
71145;BME280;58812;47.698;17.726;2023-07-31T12:47:48;99994.97;;;28.35;32.34
71145;BME280;58812;47.698;17.726;2023-07-31T12:50:14;99993.66;;;28.68;33.40